sensor_id;sensor_type;location;lat;lon;timestamp;pressure;altitude;pressure_sealevel;temperature;humidity
21431;BME280;10876;49.038;10.608;2023-04-15T00:02:14;97967.63;;;4.32;100.00
21431;BME280;10876;49.038;10.608;2023-04-15T00:04:43;97963.78;;;4.33;100.00
21431;BME280;10876;49.038;10.608;2023-04-15T00:07:11;97961.25;;;4.42;100.00
21431;BME280;10876;49.038;10.608;2023-04-15T00:09:40;97960.19;;;4.38;100.00
21431;BME280;10876;49.038;10.608;2023-04-15T00:12:07;97960.75;;;4.16;100.00
21431;BME280;10876;49.038;10.608;2023-04-15T00:14:34;97964.03;;;4.13;100.00
21431;BME280;10876;49.038;10.608;2023-04-15T00:17:01;97974.25;;;4.21;100.00
21431;BME280;10876;49.038;10.608;2023-04-15T00:19:28;97982.03;;;4.27;100.00
21431;BME280;10876;49.038;10.608;2023-04-15T00:21:56;97985.47;;;4.33;100.00
21431;BME280;10876;49.038;10.608;2023-04-15T00:24:24;97997.34;;;4.37;100.00
21431;BME280;10876;49.038;10.608;2023-04-15T00:26:51;97994.94;;;4.36;100.00
21431;BME280;10876;49.038;10.608;2023-04-15T00:29:18;97994.88;;;4.17;100.00
21431;BME280;10876;49.038;10.608;2023-04-15T00:31:45;97997.69;;;4.06;100.00
21431;BME280;10876;49.038;10.608;2023-04-15T00:34:12;97991.22;;;4.02;100.00
21431;BME280;10876;49.038;10.608;2023-04-15T00:36:39;97989.44;;;3.93;100.00
21431;BME280;10876;49.038;10.608;2023-04-15T00:39:06;97993.47;;;3.95;100.00
21431;BME280;10876;49.038;10.608;2023-04-15T00:41:35;97992.97;;;3.88;100.00
21431;BME280;10876;49.038;10.608;2023-04-15T00:44:04;97995.22;;;3.81;100.00
21431;BME280;10876;49.038;10.608;2023-04-15T00:46:32;98002.16;;;3.92;100.00
21431;BME280;10876;49.038;10.608;2023-04-15T00:49:02;98016.88;;;3.81;100.00
21431;BME280;10876;49.038;10.608;2023-04-15T00:51:30;98026.63;;;3.82;100.00
21431;BME280;10876;49.038;10.608;2023-04-15T00:53:58;98026.94;;;3.75;100.00
21431;BME280;10876;49.038;10.608;2023-04-15T00:56:25;98036.34;;;3.83;100.00
21431;BME280;10876;49.038;10.608;2023-04-15T00:58:56;98062.88;;;3.86;100.00
21431;BME280;10876;49.038;10.608;2023-04-15T01:01:25;98078.53;;;3.89;100.00
21431;BME280;10876;49.038;10.608;2023-04-15T01:03:52;98087.66;;;4.03;100.00
21431;BME280;10876;49.038;10.608;2023-04-15T01:06:19;98097.97;;;4.01;100.00
21431;BME280;10876;49.038;10.608;2023-04-15T01:08:46;98115.75;;;4.13;100.00
21431;BME280;10876;49.038;10.608;2023-04-15T01:11:14;98146.34;;;4.18;100.00
21431;BME280;10876;49.038;10.608;2023-04-15T01:13:41;98159.28;;;4.26;100.00
21431;BME280;10876;49.038;10.608;2023-04-15T01:16:10;98167.13;;;4.28;100.00
21431;BME280;10876;49.038;10.608;2023-04-15T01:18:38;98179.53;;;4.34;100.00
21431;BME280;10876;49.038;10.608;2023-04-15T01:21:05;98181.63;;;4.42;100.00
21431;BME280;10876;49.038;10.608;2023-04-15T01:23:35;98181.06;;;4.45;100.00
21431;BME280;10876;49.038;10.608;2023-04-15T01:26:05;98182.19;;;4.44;100.00
21431;BME280;10876;49.038;10.608;2023-04-15T01:28:33;98184.31;;;4.47;100.00
21431;BME280;10876;49.038;10.608;2023-04-15T01:31:08;98190.28;;;4.49;100.00
21431;BME280;10876;49.038;10.608;2023-04-15T01:33:35;98187.56;;;4.49;100.00
21431;BME280;10876;49.038;10.608;2023-04-15T01:36:03;98223.63;;;4.50;100.00
21431;BME280;10876;49.038;10.608;2023-04-15T01:38:31;98226.03;;;4.51;100.00
21431;BME280;10876;49.038;10.608;2023-04-15T01:40:58;98230.06;;;4.54;100.00
21431;BME280;10876;49.038;10.608;2023-04-15T01:43:26;98237.13;;;4.55;100.00
21431;BME280;10876;49.038;10.608;2023-04-15T01:45:53;98234.69;;;4.54;100.00
21431;BME280;10876;49.038;10.608;2023-04-15T01:48:21;98231.44;;;4.51;100.00
21431;BME280;10876;49.038;10.608;2023-04-15T01:50:48;98236.88;;;4.51;100.00
21431;BME280;10876;49.038;10.608;2023-04-15T01:53:15;98231.84;;;4.35;100.00
21431;BME280;10876;49.038;10.608;2023-04-15T01:55:42;98228.66;;;4.27;100.00
21431;BME280;10876;49.038;10.608;2023-04-15T01:58:09;98232.72;;;4.25;100.00
21431;BME280;10876;49.038;10.608;2023-04-15T02:00:37;98230.69;;;4.06;100.00
21431;BME280;10876;49.038;10.608;2023-04-15T02:03:04;98230.19;;;3.99;100.00
21431;BME280;10876;49.038;10.608;2023-04-15T02:05:31;98227.44;;;4.10;100.00
21431;BME280;10876;49.038;10.608;2023-04-15T02:07:58;98238.25;;;4.10;100.00
21431;BME280;10876;49.038;10.608;2023-04-15T02:10:25;98243.72;;;4.04;100.00
21431;BME280;10876;49.038;10.608;2023-04-15T02:12:55;98243.19;;;3.97;100.00
21431;BME280;10876;49.038;10.608;2023-04-15T02:15:22;98246.22;;;3.91;100.00
21431;BME280;10876;49.038;10.608;2023-04-15T02:17:51;98238.91;;;3.91;100.00
21431;BME280;10876;49.038;10.608;2023-04-15T02:20:20;98247.34;;;3.79;100.00
21431;BME280;10876;49.038;10.608;2023-04-15T02:22:47;98246.47;;;3.89;100.00
21431;BME280;10876;49.038;10.608;2023-04-15T02:25:14;98248.69;;;3.87;100.00
21431;BME280;10876;49.038;10.608;2023-04-15T02:27:42;98266.59;;;3.78;100.00
21431;BME280;10876;49.038;10.608;2023-04-15T02:30:10;98267.63;;;3.87;100.00
21431;BME280;10876;49.038;10.608;2023-04-15T02:32:37;98276.31;;;3.84;100.00
21431;BME280;10876;49.038;10.608;2023-04-15T02:35:07;98278.75;;;3.80;100.00
21431;BME280;10876;49.038;10.608;2023-04-15T02:37:35;98287.19;;;3.74;100.00
21431;BME280;10876;49.038;10.608;2023-04-15T02:40:07;98284.81;;;3.57;100.00
21431;BME280;10876;49.038;10.608;2023-04-15T02:42:36;98306.72;;;3.66;100.00
21431;BME280;10876;49.038;10.608;2023-04-15T02:45:05;98303.72;;;3.72;100.00
21431;BME280;10876;49.038;10.608;2023-04-15T02:47:32;98319.13;;;3.77;100.00
21431;BME280;10876;49.038;10.608;2023-04-15T02:50:01;98337.28;;;3.81;100.00
21431;BME280;10876;49.038;10.608;2023-04-15T02:52:30;98337.50;;;3.90;100.00
21431;BME280;10876;49.038;10.608;2023-04-15T02:54:57;98344.53;;;3.96;100.00
21431;BME280;10876;49.038;10.608;2023-04-15T02:57:25;98354.81;;;3.99;100.00
21431;BME280;10876;49.038;10.608;2023-04-15T02:59:53;98363.50;;;3.96;100.00
21431;BME280;10876;49.038;10.608;2023-04-15T03:02:20;98344.84;;;3.79;100.00
21431;BME280;10876;49.038;10.608;2023-04-15T03:04:47;98354.94;;;3.64;100.00
21431;BME280;10876;49.038;10.608;2023-04-15T03:07:16;98355.75;;;3.49;100.00
21431;BME280;10876;49.038;10.608;2023-04-15T03:09:44;98352.25;;;3.53;100.00
21431;BME280;10876;49.038;10.608;2023-04-15T03:12:12;98361.44;;;3.52;100.00
21431;BME280;10876;49.038;10.608;2023-04-15T03:14:39;98362.00;;;3.34;100.00
21431;BME280;10876;49.038;10.608;2023-04-15T03:17:29;98360.66;;;3.31;100.00
21431;BME280;10876;49.038;10.608;2023-04-15T03:20:33;98367.41;;;3.29;100.00
21431;BME280;10876;49.038;10.608;2023-04-15T03:23:00;98368.50;;;3.23;100.00
21431;BME280;10876;49.038;10.608;2023-04-15T03:25:28;98373.91;;;3.23;100.00
21431;BME280;10876;49.038;10.608;2023-04-15T03:27:55;98378.25;;;3.29;100.00
21431;BME280;10876;49.038;10.608;2023-04-15T03:30:22;98381.50;;;3.36;100.00
21431;BME280;10876;49.038;10.608;2023-04-15T03:32:49;98385.81;;;3.37;100.00
21431;BME280;10876;49.038;10.608;2023-04-15T03:35:16;98385.00;;;3.36;100.00
21431;BME280;10876;49.038;10.608;2023-04-15T03:37:43;98380.97;;;3.24;100.00
21431;BME280;10876;49.038;10.608;2023-04-15T03:40:11;98391.25;;;3.27;100.00
21431;BME280;10876;49.038;10.608;2023-04-15T03:42:39;98399.38;;;3.22;100.00
21431;BME280;10876;49.038;10.608;2023-04-15T03:45:07;98402.88;;;3.27;100.00
21431;BME280;10876;49.038;10.608;2023-04-15T03:47:37;98393.41;;;3.14;100.00
21431;BME280;10876;49.038;10.608;2023-04-15T03:50:05;98411.28;;;3.15;100.00
21431;BME280;10876;49.038;10.608;2023-04-15T03:52:32;98415.06;;;3.25;100.00
21431;BME280;10876;49.038;10.608;2023-04-15T03:54:59;98411.28;;;3.15;100.00
21431;BME280;10876;49.038;10.608;2023-04-15T03:57:26;98421.00;;;3.16;100.00
21431;BME280;10876;49.038;10.608;2023-04-15T03:59:55;98423.72;;;3.22;100.00
21431;BME280;10876;49.038;10.608;2023-04-15T04:02:22;98434.00;;;3.30;100.00
21431;BME280;10876;49.038;10.608;2023-04-15T04:04:49;98435.63;;;3.31;100.00
21431;BME280;10876;49.038;10.608;2023-04-15T04:07:16;98436.97;;;3.28;100.00
21431;BME280;10876;49.038;10.608;2023-04-15T04:09:44;98441.59;;;3.33;100.00
21431;BME280;10876;49.038;10.608;2023-04-15T04:12:11;98439.94;;;3.16;100.00
21431;BME280;10876;49.038;10.608;2023-04-15T04:14:38;98438.03;;;2.97;100.00
21431;BME280;10876;49.038;10.608;2023-04-15T04:17:06;98435.00;;;2.67;100.00
21431;BME280;10876;49.038;10.608;2023-04-15T04:19:33;98436.03;;;2.56;100.00
21431;BME280;10876;49.038;10.608;2023-04-15T04:22:01;98435.50;;;2.59;100.00
21431;BME280;10876;49.038;10.608;2023-04-15T04:24:28;98447.94;;;2.65;100.00
21431;BME280;10876;49.038;10.608;2023-04-15T04:26:55;98445.81;;;2.73;100.00
21431;BME280;10876;49.038;10.608;2023-04-15T04:29:22;98460.44;;;2.77;100.00
21431;BME280;10876;49.038;10.608;2023-04-15T04:31:49;98453.63;;;2.64;100.00
21431;BME280;10876;49.038;10.608;2023-04-15T04:34:17;98465.25;;;2.64;100.00
21431;BME280;10876;49.038;10.608;2023-04-15T04:36:44;98461.47;;;2.55;100.00
21431;BME280;10876;49.038;10.608;2023-04-15T04:39:11;98466.56;;;2.52;100.00
21431;BME280;10876;49.038;10.608;2023-04-15T04:41:38;98471.97;;;2.52;100.00
21431;BME280;10876;49.038;10.608;2023-04-15T04:44:05;98469.97;;;2.32;100.00
21431;BME280;10876;49.038;10.608;2023-04-15T04:46:32;98472.19;;;2.35;100.00
21431;BME280;10876;49.038;10.608;2023-04-15T04:48:59;98475.69;;;2.40;100.00
21431;BME280;10876;49.038;10.608;2023-04-15T04:51:27;98485.69;;;2.40;100.00
21431;BME280;10876;49.038;10.608;2023-04-15T04:53:55;98483.84;;;2.45;100.00
21431;BME280;10876;49.038;10.608;2023-04-15T04:56:22;98482.47;;;2.38;100.00
21431;BME280;10876;49.038;10.608;2023-04-15T04:58:49;98496.22;;;2.36;100.00
21431;BME280;10876;49.038;10.608;2023-04-15T05:01:16;98483.00;;;2.35;100.00
21431;BME280;10876;49.038;10.608;2023-04-15T05:03:43;98491.09;;;2.35;100.00
21431;BME280;10876;49.038;10.608;2023-04-15T05:06:10;98502.72;;;2.40;100.00
21431;BME280;10876;49.038;10.608;2023-04-15T05:08:38;98494.81;;;2.29;100.00
21431;BME280;10876;49.038;10.608;2023-04-15T05:11:06;98502.34;;;2.16;100.00
21431;BME280;10876;49.038;10.608;2023-04-15T05:13:33;98502.94;;;2.23;100.00
21431;BME280;10876;49.038;10.608;2023-04-15T05:16:03;98511.53;;;2.15;100.00
21431;BME280;10876;49.038;10.608;2023-04-15T05:18:30;98517.50;;;2.22;100.00
21431;BME280;10876;49.038;10.608;2023-04-15T05:20:59;98508.66;;;2.32;100.00
21431;BME280;10876;49.038;10.608;2023-04-15T05:23:27;98519.78;;;2.46;100.00
21431;BME280;10876;49.038;10.608;2023-04-15T05:25:55;98534.97;;;2.52;100.00
21431;BME280;10876;49.038;10.608;2023-04-15T05:28:22;98535.00;;;2.62;100.00
21431;BME280;10876;49.038;10.608;2023-04-15T05:30:49;98543.72;;;2.80;100.00
21431;BME280;10876;49.038;10.608;2023-04-15T05:33:16;98559.16;;;2.84;100.00
21431;BME280;10876;49.038;10.608;2023-04-15T05:35:43;98567.59;;;2.98;100.00
21431;BME280;10876;49.038;10.608;2023-04-15T05:38:10;98567.09;;;3.11;100.00
21431;BME280;10876;49.038;10.608;2023-04-15T05:40:37;98577.13;;;3.16;100.00
21431;BME280;10876;49.038;10.608;2023-04-15T05:43:06;98585.50;;;3.20;100.00
21431;BME280;10876;49.038;10.608;2023-04-15T05:45:32;98592.88;;;3.29;100.00
21431;BME280;10876;49.038;10.608;2023-04-15T05:47:59;98597.97;;;3.26;100.00
21431;BME280;10876;49.038;10.608;2023-04-15T05:50:26;98606.09;;;3.26;100.00
21431;BME280;10876;49.038;10.608;2023-04-15T05:52:54;98592.91;;;3.45;100.00
21431;BME280;10876;49.038;10.608;2023-04-15T05:55:21;98609.69;;;3.52;100.00
21431;BME280;10876;49.038;10.608;2023-04-15T05:57:48;98608.63;;;3.58;100.00
21431;BME280;10876;49.038;10.608;2023-04-15T06:00:17;98621.63;;;3.66;100.00
21431;BME280;10876;49.038;10.608;2023-04-15T06:02:44;98624.09;;;3.68;100.00
21431;BME280;10876;49.038;10.608;2023-04-15T06:05:11;98625.16;;;3.72;100.00
21431;BME280;10876;49.038;10.608;2023-04-15T06:07:38;98635.75;;;3.89;100.00
21431;BME280;10876;49.038;10.608;2023-04-15T06:10:07;98643.09;;;3.93;100.00
21431;BME280;10876;49.038;10.608;2023-04-15T06:12:34;98639.31;;;4.04;100.00
21431;BME280;10876;49.038;10.608;2023-04-15T06:15:01;98642.53;;;4.12;100.00
21431;BME280;10876;49.038;10.608;2023-04-15T06:17:29;98644.72;;;4.25;100.00
21431;BME280;10876;49.038;10.608;2023-04-15T06:19:56;98648.50;;;4.34;100.00
21431;BME280;10876;49.038;10.608;2023-04-15T06:22:23;98649.59;;;4.48;100.00
21431;BME280;10876;49.038;10.608;2023-04-15T06:24:51;98649.59;;;4.48;100.00
21431;BME280;10876;49.038;10.608;2023-04-15T06:27:18;98645.78;;;4.60;100.00
21431;BME280;10876;49.038;10.608;2023-04-15T06:29:44;98640.91;;;4.67;100.00
21431;BME280;10876;49.038;10.608;2023-04-15T06:32:11;98643.56;;;4.72;100.00
21431;BME280;10876;49.038;10.608;2023-04-15T06:34:40;98640.59;;;4.79;100.00
21431;BME280;10876;49.038;10.608;2023-04-15T06:37:07;98638.44;;;4.76;100.00
21431;BME280;10876;49.038;10.608;2023-04-15T06:39:34;98644.38;;;4.93;100.00
21431;BME280;10876;49.038;10.608;2023-04-15T06:42:01;98640.78;;;5.13;100.00
21431;BME280;10876;49.038;10.608;2023-04-15T06:44:29;98626.63;;;5.21;100.00
21431;BME280;10876;49.038;10.608;2023-04-15T06:46:56;98625.75;;;5.31;100.00
21431;BME280;10876;49.038;10.608;2023-04-15T06:49:23;98620.81;;;5.43;100.00
21431;BME280;10876;49.038;10.608;2023-04-15T06:51:52;98618.81;;;5.59;100.00
21431;BME280;10876;49.038;10.608;2023-04-15T06:54:19;98601.66;;;5.69;100.00
21431;BME280;10876;49.038;10.608;2023-04-15T06:56:46;98581.69;;;5.83;100.00
21431;BME280;10876;49.038;10.608;2023-04-15T06:59:13;98565.91;;;5.91;100.00
21431;BME280;10876;49.038;10.608;2023-04-15T07:01:40;98557.16;;;5.99;100.00
21431;BME280;10876;49.038;10.608;2023-04-15T07:04:08;98531.97;;;6.17;100.00
21431;BME280;10876;49.038;10.608;2023-04-15T07:06:35;98523.78;;;6.22;100.00
21431;BME280;10876;49.038;10.608;2023-04-15T07:09:04;98519.28;;;6.37;100.00
21431;BME280;10876;49.038;10.608;2023-04-15T07:11:31;98508.69;;;6.59;100.00
21431;BME280;10876;49.038;10.608;2023-04-15T07:13:57;98493.72;;;6.81;100.00
21431;BME280;10876;49.038;10.608;2023-04-15T07:16:24;98482.28;;;7.03;100.00
21431;BME280;10876;49.038;10.608;2023-04-15T07:18:52;98464.63;;;7.19;100.00
21431;BME280;10876;49.038;10.608;2023-04-15T07:21:20;98446.00;;;7.45;100.00
21431;BME280;10876;49.038;10.608;2023-04-15T07:23:47;98433.97;;;7.79;100.00
21431;BME280;10876;49.038;10.608;2023-04-15T07:26:15;98393.19;;;7.87;100.00
21431;BME280;10876;49.038;10.608;2023-04-15T07:28:42;98368.78;;;7.96;100.00
21431;BME280;10876;49.038;10.608;2023-04-15T07:31:10;98357.03;;;8.09;100.00
21431;BME280;10876;49.038;10.608;2023-04-15T07:33:37;98318.47;;;7.75;100.00
21431;BME280;10876;49.038;10.608;2023-04-15T07:36:05;98303.13;;;7.79;100.00
21431;BME280;10876;49.038;10.608;2023-04-15T07:38:32;98291.28;;;7.97;100.00
21431;BME280;10876;49.038;10.608;2023-04-15T07:40:59;98279.78;;;7.86;100.00
21431;BME280;10876;49.038;10.608;2023-04-15T07:43:27;98270.97;;;8.03;100.00
21431;BME280;10876;49.038;10.608;2023-04-15T07:45:54;98262.88;;;8.12;100.00
21431;BME280;10876;49.038;10.608;2023-04-15T07:48:21;98246.22;;;8.13;100.00
21431;BME280;10876;49.038;10.608;2023-04-15T07:50:48;98229.78;;;8.05;100.00
21431;BME280;10876;49.038;10.608;2023-04-15T07:53:15;98218.06;;;8.04;100.00
21431;BME280;10876;49.038;10.608;2023-04-15T07:55:42;98201.47;;;8.15;100.00
21431;BME280;10876;49.038;10.608;2023-04-15T07:58:09;98194.56;;;8.31;100.00
21431;BME280;10876;49.038;10.608;2023-04-15T08:00:38;98171.50;;;8.60;100.00
21431;BME280;10876;49.038;10.608;2023-04-15T08:03:05;98147.19;;;8.49;100.00
21431;BME280;10876;49.038;10.608;2023-04-15T08:05:32;98151.53;;;8.73;100.00
21431;BME280;10876;49.038;10.608;2023-04-15T08:07:59;98162.78;;;8.80;100.00
21431;BME280;10876;49.038;10.608;2023-04-15T08:10:27;98138.88;;;8.86;100.00
21431;BME280;10876;49.038;10.608;2023-04-15T08:12:55;98129.25;;;9.28;100.00
21431;BME280;10876;49.038;10.608;2023-04-15T08:15:22;98112.66;;;9.90;100.00
21431;BME280;10876;49.038;10.608;2023-04-15T08:17:50;98115.03;;;10.18;100.00
21431;BME280;10876;49.038;10.608;2023-04-15T08:20:17;98079.72;;;10.60;100.00
21431;BME280;10876;49.038;10.608;2023-04-15T08:22:45;98087.88;;;10.77;100.00
21431;BME280;10876;49.038;10.608;2023-04-15T08:25:16;98026.13;;;10.89;100.00
21431;BME280;10876;49.038;10.608;2023-04-15T08:27:44;97973.97;;;11.06;100.00
21431;BME280;10876;49.038;10.608;2023-04-15T08:30:11;97851.19;;;10.78;100.00
21431;BME280;10876;49.038;10.608;2023-04-15T08:32:39;97761.03;;;10.73;100.00
21431;BME280;10876;49.038;10.608;2023-04-15T08:35:08;97687.97;;;10.65;100.00
21431;BME280;10876;49.038;10.608;2023-04-15T08:37:35;97659.94;;;10.93;100.00
21431;BME280;10876;49.038;10.608;2023-04-15T08:40:02;97711.94;;;10.68;100.00
21431;BME280;10876;49.038;10.608;2023-04-15T08:42:30;97661.31;;;10.87;100.00
21431;BME280;10876;49.038;10.608;2023-04-15T08:44:58;97589.91;;;10.58;100.00
21431;BME280;10876;49.038;10.608;2023-04-15T08:47:29;97574.06;;;10.52;100.00
21431;BME280;10876;49.038;10.608;2023-04-15T08:49:57;97497.53;;;10.68;100.00
21431;BME280;10876;49.038;10.608;2023-04-15T08:52:26;97430.56;;;10.53;100.00
21431;BME280;10876;49.038;10.608;2023-04-15T08:54:56;97381.97;;;10.37;100.00
21431;BME280;10876;49.038;10.608;2023-04-15T08:57:28;97324.44;;;10.74;100.00
21431;BME280;10876;49.038;10.608;2023-04-15T08:59:55;97293.91;;;10.60;100.00
21431;BME280;10876;49.038;10.608;2023-04-15T09:02:22;97258.72;;;10.74;100.00
21431;BME280;10876;49.038;10.608;2023-04-15T09:04:50;97246.59;;;10.88;100.00
21431;BME280;10876;49.038;10.608;2023-04-15T09:07:17;97204.00;;;10.62;100.00
21431;BME280;10876;49.038;10.608;2023-04-15T09:09:45;97182.22;;;10.81;100.00
21431;BME280;10876;49.038;10.608;2023-04-15T09:12:13;97159.53;;;10.81;100.00
21431;BME280;10876;49.038;10.608;2023-04-15T09:14:42;97160.22;;;10.62;100.00
21431;BME280;10876;49.038;10.608;2023-04-15T09:17:09;97154.38;;;10.64;100.00
21431;BME280;10876;49.038;10.608;2023-04-15T09:19:36;97160.22;;;10.62;100.00
21431;BME280;10876;49.038;10.608;2023-04-15T09:22:03;97173.59;;;10.51;100.00
21431;BME280;10876;49.038;10.608;2023-04-15T09:24:36;97175.31;;;10.56;100.00
21431;BME280;10876;49.038;10.608;2023-04-15T09:27:05;97198.97;;;10.64;100.00
21431;BME280;10876;49.038;10.608;2023-04-15T09:29:32;97219.34;;;10.51;100.00
21431;BME280;10876;49.038;10.608;2023-04-15T09:32:09;97244.38;;;10.65;100.00
21431;BME280;10876;49.038;10.608;2023-04-15T09:34:36;97268.97;;;10.37;100.00
21431;BME280;10876;49.038;10.608;2023-04-15T09:37:03;97303.53;;;10.29;100.00
21431;BME280;10876;49.038;10.608;2023-04-15T09:39:45;97322.44;;;10.47;100.00
21431;BME280;10876;49.038;10.608;2023-04-15T09:42:16;97337.06;;;10.51;100.00
21431;BME280;10876;49.038;10.608;2023-04-15T09:44:49;97365.34;;;10.30;100.00
21431;BME280;10876;49.038;10.608;2023-04-15T09:47:26;97389.88;;;10.39;100.00
21431;BME280;10876;49.038;10.608;2023-04-15T09:49:57;97403.53;;;10.51;100.00
21431;BME280;10876;49.038;10.608;2023-04-15T09:52:24;97426.22;;;10.52;100.00
21431;BME280;10876;49.038;10.608;2023-04-15T09:54:52;97445.63;;;10.71;100.00
21431;BME280;10876;49.038;10.608;2023-04-15T09:57:22;97470.34;;;10.87;100.00
21431;BME280;10876;49.038;10.608;2023-04-15T09:59:49;97479.16;;;10.68;100.00
21431;BME280;10876;49.038;10.608;2023-04-15T10:02:18;97509.41;;;10.84;100.00
21431;BME280;10876;49.038;10.608;2023-04-15T10:04:46;97529.50;;;10.76;100.00
21431;BME280;10876;49.038;10.608;2023-04-15T10:07:14;97561.53;;;10.51;100.00
21431;BME280;10876;49.038;10.608;2023-04-15T10:09:42;97573.94;;;10.48;100.00
21431;BME280;10876;49.038;10.608;2023-04-15T10:12:11;97585.50;;;10.66;100.00
21431;BME280;10876;49.038;10.608;2023-04-15T10:14:41;97611.97;;;10.62;100.00
21431;BME280;10876;49.038;10.608;2023-04-15T10:17:10;97655.00;;;10.41;100.00
21431;BME280;10876;49.038;10.608;2023-04-15T10:19:38;97692.59;;;10.31;100.00
21431;BME280;10876;49.038;10.608;2023-04-15T10:22:06;97707.13;;;10.23;100.00
21431;BME280;10876;49.038;10.608;2023-04-15T10:24:34;97712.94;;;10.22;100.00
21431;BME280;10876;49.038;10.608;2023-04-15T10:27:02;97726.41;;;10.06;100.00
21431;BME280;10876;49.038;10.608;2023-04-15T10:29:30;97736.81;;;10.12;100.00
21431;BME280;10876;49.038;10.608;2023-04-15T10:31:59;97744.41;;;10.07;100.00
21431;BME280;10876;49.038;10.608;2023-04-15T10:34:28;97741.09;;;10.22;100.00
21431;BME280;10876;49.038;10.608;2023-04-15T10:36:59;97759.34;;;10.09;100.00
21431;BME280;10876;49.038;10.608;2023-04-15T10:39:39;97756.31;;;10.11;100.00
21431;BME280;10876;49.038;10.608;2023-04-15T10:42:07;97768.19;;;10.15;100.00
21431;BME280;10876;49.038;10.608;2023-04-15T10:44:35;97783.13;;;10.18;100.00
21431;BME280;10876;49.038;10.608;2023-04-15T10:47:11;97783.84;;;10.06;100.00
21431;BME280;10876;49.038;10.608;2023-04-15T10:49:43;97794.47;;;10.07;100.00
21431;BME280;10876;49.038;10.608;2023-04-15T10:52:11;97791.38;;;10.09;100.00
21431;BME280;10876;49.038;10.608;2023-04-15T10:54:38;97807.53;;;10.02;100.00
21431;BME280;10876;49.038;10.608;2023-04-15T10:57:13;97797.66;;;10.09;100.00
21431;BME280;10876;49.038;10.608;2023-04-15T11:00:01;97795.09;;;10.13;100.00
21431;BME280;10876;49.038;10.608;2023-04-15T11:02:40;97808.19;;;9.99;100.00
21431;BME280;10876;49.038;10.608;2023-04-15T11:05:07;97808.41;;;9.85;100.00
21431;BME280;10876;49.038;10.608;2023-04-15T11:07:40;97777.22;;;10.07;100.00
21431;BME280;10876;49.038;10.608;2023-04-15T11:13:27;97795.63;;;9.98;100.00
21431;BME280;10876;49.038;10.608;2023-04-15T11:15:57;97804.97;;;9.97;100.00
21431;BME280;10876;49.038;10.608;2023-04-15T11:18:28;97809.25;;;9.77;100.00
21431;BME280;10876;49.038;10.608;2023-04-15T11:20:58;97808.03;;;9.57;100.00
21431;BME280;10876;49.038;10.608;2023-04-15T11:23:33;97812.97;;;9.72;100.00
21431;BME280;10876;49.038;10.608;2023-04-15T11:26:02;97808.31;;;9.64;100.00
21431;BME280;10876;49.038;10.608;2023-04-15T11:28:33;97801.16;;;9.89;100.00
21431;BME280;10876;49.038;10.608;2023-04-15T11:31:05;97796.69;;;9.84;100.00
21431;BME280;10876;49.038;10.608;2023-04-15T11:33:34;97788.13;;;9.86;100.00
21431;BME280;10876;49.038;10.608;2023-04-15T11:36:01;97776.34;;;9.94;100.00
21431;BME280;10876;49.038;10.608;2023-04-15T11:38:29;97778.66;;;9.83;100.00
21431;BME280;10876;49.038;10.608;2023-04-15T11:40:57;97766.13;;;9.82;100.00
21431;BME280;10876;49.038;10.608;2023-04-15T11:43:24;97769.38;;;9.67;100.00
21431;BME280;10876;49.038;10.608;2023-04-15T11:45:52;97755.72;;;9.67;100.00
21431;BME280;10876;49.038;10.608;2023-04-15T11:48:22;97754.47;;;9.64;100.00
21431;BME280;10876;49.038;10.608;2023-04-15T11:50:55;97745.28;;;9.69;100.00
21431;BME280;10876;49.038;10.608;2023-04-15T11:53:23;97739.44;;;9.79;100.00
21431;BME280;10876;49.038;10.608;2023-04-15T11:55:51;97734.06;;;9.62;100.00
21431;BME280;10876;49.038;10.608;2023-04-15T11:58:20;97729.69;;;9.31;100.00
21431;BME280;10876;49.038;10.608;2023-04-15T12:00:49;97726.28;;;9.34;100.00
21431;BME280;10876;49.038;10.608;2023-04-15T12:03:20;97696.06;;;9.39;100.00
21431;BME280;10876;49.038;10.608;2023-04-15T12:06:12;97699.69;;;9.14;100.00
21431;BME280;10876;49.038;10.608;2023-04-15T12:09:03;97686.63;;;9.28;100.00
21431;BME280;10876;49.038;10.608;2023-04-15T12:11:38;97678.34;;;8.98;100.00
21431;BME280;10876;49.038;10.608;2023-04-15T12:14:07;97669.22;;;8.94;100.00
21431;BME280;10876;49.038;10.608;2023-04-15T12:16:35;97664.59;;;8.86;100.00
21431;BME280;10876;49.038;10.608;2023-04-15T12:19:06;97651.59;;;8.83;100.00
21431;BME280;10876;49.038;10.608;2023-04-15T12:21:37;97660.97;;;8.56;100.00
21431;BME280;10876;49.038;10.608;2023-04-15T12:24:05;97648.63;;;8.50;100.00
21431;BME280;10876;49.038;10.608;2023-04-15T12:26:35;97636.72;;;8.54;100.00
21431;BME280;10876;49.038;10.608;2023-04-15T12:29:04;97640.44;;;8.50;100.00
21431;BME280;10876;49.038;10.608;2023-04-15T12:31:33;97629.69;;;8.53;100.00
21431;BME280;10876;49.038;10.608;2023-04-15T12:34:00;97626.47;;;8.51;100.00
21431;BME280;10876;49.038;10.608;2023-04-15T12:36:28;97626.59;;;8.55;100.00
21431;BME280;10876;49.038;10.608;2023-04-15T12:39:02;97611.03;;;8.55;100.00
21431;BME280;10876;49.038;10.608;2023-04-15T12:41:30;97609.94;;;8.48;100.00
21431;BME280;10876;49.038;10.608;2023-04-15T12:43:58;97608.00;;;8.48;100.00
21431;BME280;10876;49.038;10.608;2023-04-15T12:46:26;97606.41;;;8.47;100.00
21431;BME280;10876;49.038;10.608;2023-04-15T12:48:53;97598.22;;;8.47;100.00
21431;BME280;10876;49.038;10.608;2023-04-15T12:51:20;97595.97;;;8.41;100.00
21431;BME280;10876;49.038;10.608;2023-04-15T12:53:47;97595.66;;;8.42;100.00
21431;BME280;10876;49.038;10.608;2023-04-15T12:56:15;97590.34;;;8.54;100.00
21431;BME280;10876;49.038;10.608;2023-04-15T12:58:42;97589.19;;;8.55;100.00